Time;durP1;ratioP1;P1;durP2;ratioP2;P2;SDS_P1;SDS_P2;PMS_P1;PMS_P2;Temp;Humidity;BMP_temperature;BMP_pressure;BME280_temperature;BME280_humidity;BME280_pressure;Samples;Min_cycle;Max_cycle;Signal;HPM_P1;HPM_P2
2023/07/03 00:00:17;;;;;;;30.25;18.20;;;16.80;99.90;;;;;;4961878;28;20058;-42
2023/07/03 00:02:51;;;;;;;28.10;17.67;;;16.70;99.90;;;;;;4960186;28;20101;-41
2023/07/03 00:05:21;;;;;;;29.20;17.77;;;16.70;99.90;;;;;;4971326;28;20067;-40
2023/07/03 00:07:48;;;;;;;32.00;16.98;;;16.80;99.90;;;;;;4975073;28;20054;-39
2023/07/03 00:10:17;;;;;;;32.95;17.50;;;16.80;99.90;;;;;;4973029;28;20480;-41
2023/07/03 00:12:44;;;;;;;31.85;18.08;;;16.80;99.90;;;;;;4972309;28;20039;-42
2023/07/03 00:15:12;;;;;;;30.13;17.42;;;16.80;99.90;;;;;;4974362;28;20049;-44
2023/07/03 00:17:39;;;;;;;24.65;15.57;;;16.80;99.90;;;;;;4972113;28;20145;-40
2023/07/03 00:20:10;;;;;;;28.67;16.73;;;16.80;99.90;;;;;;4975967;28;20101;-43
2023/07/03 00:22:37;;;;;;;29.30;17.48;;;16.90;99.90;;;;;;4982267;28;20508;-41
2023/07/03 00:25:05;;;;;;;33.72;17.65;;;16.90;99.90;;;;;;4974858;28;20487;-41
2023/07/03 00:27:32;;;;;;;29.30;17.42;;;16.90;99.90;;;;;;4966395;28;20134;-43
2023/07/03 00:30:00;;;;;;;32.15;18.45;;;16.80;99.90;;;;;;4978649;28;20082;-39
2023/07/03 00:32:28;;;;;;;34.67;18.25;;;16.80;99.90;;;;;;4967946;28;20071;-40
2023/07/03 00:34:56;;;;;;;29.05;17.50;;;16.80;99.90;;;;;;4981063;28;20040;-42
2023/07/03 00:37:24;;;;;;;30.83;17.23;;;16.80;99.90;;;;;;4965799;28;20102;-41
2023/07/03 00:39:55;;;;;;;30.15;17.95;;;16.80;99.90;;;;;;4969900;28;20042;-41
2023/07/03 00:42:24;;;;;;;27.55;16.60;;;16.90;99.90;;;;;;4973408;28;20075;-42
2023/07/03 00:44:52;;;;;;;31.33;18.17;;;16.90;99.90;;;;;;4970680;28;20097;-41
2023/07/03 00:47:21;;;;;;;29.65;17.10;;;16.90;99.90;;;;;;4969397;28;20145;-41
2023/07/03 00:49:49;;;;;;;26.52;16.58;;;16.90;99.90;;;;;;4980856;28;20047;-39
2023/07/03 00:52:17;;;;;;;28.75;16.25;;;17.00;99.90;;;;;;4965961;28;20428;-42
2023/07/03 00:54:44;;;;;;;24.23;16.55;;;17.00;99.90;;;;;;4970719;28;20050;-40
2023/07/03 00:57:13;;;;;;;29.88;17.02;;;17.10;99.90;;;;;;4975640;28;20473;-41
2023/07/03 00:59:40;;;;;;;29.00;17.27;;;17.10;99.90;;;;;;4969367;28;20464;-43
2023/07/03 01:02:22;;;;;;;27.45;16.38;;;17.10;99.90;;;;;;4974400;28;20077;-44
2023/07/03 01:04:57;;;;;;;29.90;16.70;;;17.10;99.90;;;;;;4962574;28;20357;-45
2023/07/03 01:07:28;;;;;;;30.25;16.27;;;17.10;99.90;;;;;;4967900;28;20074;-41
2023/07/03 01:10:04;;;;;;;29.60;17.15;;;17.10;99.90;;;;;;4966889;28;20123;-43
2023/07/03 01:12:37;;;;;;;28.08;17.55;;;17.00;99.90;;;;;;4974551;28;20050;-41
2023/07/03 01:15:08;;;;;;;31.10;17.73;;;17.10;99.90;;;;;;4968073;28;20547;-44
2023/07/03 01:17:37;;;;;;;31.17;17.00;;;17.00;99.90;;;;;;4963790;28;20070;-44
2023/07/03 01:20:06;;;;;;;26.33;16.52;;;17.00;99.90;;;;;;4964323;28;20051;-46
2023/07/03 01:22:53;;;;;;;30.42;16.13;;;17.00;99.90;;;;;;4969398;28;20162;-45
2023/07/03 01:25:24;;;;;;;27.20;16.20;;;17.00;99.90;;;;;;4971872;28;20062;-45
2023/07/03 01:27:54;;;;;;;31.50;16.38;;;17.00;99.90;;;;;;4963237;28;20043;-44
2023/07/03 01:30:22;;;;;;;26.90;16.63;;;17.00;99.90;;;;;;4967183;28;20067;-41
2023/07/03 01:32:53;;;;;;;26.75;15.88;;;17.00;99.90;;;;;;4963581;28;20057;-43
2023/07/03 01:35:22;;;;;;;29.80;16.48;;;17.00;99.90;;;;;;4965180;28;20126;-43
2023/07/03 01:37:52;;;;;;;26.95;16.50;;;17.00;99.90;;;;;;4977139;28;20101;-42
2023/07/03 01:40:26;;;;;;;27.63;15.95;;;17.00;99.90;;;;;;4980080;28;20399;-42
2023/07/03 01:42:54;;;;;;;31.52;17.38;;;16.90;99.90;;;;;;4964815;28;20154;-43
2023/07/03 01:45:22;;;;;;;27.80;17.27;;;16.80;99.90;;;;;;4970850;28;20043;-41
2023/07/03 01:47:49;;;;;;;29.08;17.35;;;16.70;99.90;;;;;;4975228;28;20058;-46
2023/07/03 01:50:24;;;;;;;27.33;16.55;;;16.70;99.90;;;;;;4975550;28;20043;-46
2023/07/03 01:52:56;;;;;;;27.65;16.90;;;16.60;99.90;;;;;;4958972;28;20043;-45
2023/07/03 01:55:34;;;;;;;;;;;16.60;99.90;;;;;;4975091;28;20130;-45
2023/07/03 01:58:23;;;;;;;31.13;16.85;;;16.40;99.90;;;;;;4966372;28;19925;-43
2023/07/03 02:00:55;;;;;;;26.65;17.02;;;16.50;99.90;;;;;;4988780;28;20145;-44
2023/07/03 02:03:50;;;;;;;30.05;17.60;;;16.40;99.90;;;;;;4970945;28;20059;-44
2023/07/03 02:06:24;;;;;;;26.42;17.10;;;16.40;99.90;;;;;;4972975;28;20054;-45
2023/07/03 02:08:52;;;;;;;27.63;16.85;;;16.30;99.90;;;;;;4974283;28;20137;-43
2023/07/03 02:11:22;;;;;;;28.83;17.13;;;16.30;99.90;;;;;;4972900;28;20138;-46
2023/07/03 02:13:54;;;;;;;29.55;16.83;;;16.20;99.90;;;;;;4965266;28;20094;-42
2023/07/03 02:16:29;;;;;;;28.58;17.35;;;16.20;99.90;;;;;;4971335;28;20054;-45
2023/07/03 02:18:58;;;;;;;25.90;17.52;;;16.20;99.90;;;;;;4968510;28;20158;-43
2023/07/03 02:21:28;;;;;;;30.48;18.15;;;16.10;99.90;;;;;;4968648;28;20038;-45
2023/07/03 02:23:55;;;;;;;32.35;17.88;;;16.10;99.90;;;;;;4961592;28;20051;-43
2023/07/03 02:26:22;;;;;;;33.45;17.65;;;16.00;99.90;;;;;;4970944;28;20061;-43
2023/07/03 02:28:50;;;;;;;29.45;17.10;;;16.00;99.90;;;;;;4966805;28;20575;-44
2023/07/03 02:31:18;;;;;;;31.75;17.60;;;16.00;99.90;;;;;;4971020;28;20047;-44
2023/07/03 02:33:45;;;;;;;30.00;16.55;;;16.00;99.90;;;;;;4962862;28;20125;-42
2023/07/03 02:36:12;;;;;;;33.15;17.48;;;16.00;99.90;;;;;;4973052;28;20050;-43
2023/07/03 02:38:42;;;;;;;29.42;18.30;;;15.90;99.90;;;;;;4972212;28;20053;-46
2023/07/03 02:41:10;;;;;;;27.08;16.65;;;16.00;99.90;;;;;;4973067;28;20504;-44
2023/07/03 02:43:37;;;;;;;30.10;17.05;;;16.00;99.90;;;;;;4972419;28;20055;-43
2023/07/03 02:46:07;;;;;;;26.45;16.20;;;16.00;99.90;;;;;;4971112;28;20043;-44
2023/07/03 02:48:34;;;;;;;30.52;16.27;;;16.00;99.90;;;;;;4970725;28;20058;-45
2023/07/03 02:51:03;;;;;;;27.58;15.75;;;16.10;99.90;;;;;;4970077;28;20078;-44
2023/07/03 02:53:33;;;;;;;27.27;17.10;;;16.10;99.90;;;;;;4961482;28;20062;-44
2023/07/03 02:56:07;;;;;;;30.50;17.17;;;16.20;99.90;;;;;;4965894;28;20043;-42
2023/07/03 02:58:37;;;;;;;28.83;16.67;;;16.30;99.90;;;;;;4970655;28;20070;-42
2023/07/03 03:01:05;;;;;;;28.45;15.38;;;16.30;99.90;;;;;;4972906;28;20043;-44
2023/07/03 03:03:33;;;;;;;29.20;17.50;;;16.30;99.90;;;;;;4975593;28;20047;-41
2023/07/03 03:06:02;;;;;;;27.58;16.52;;;16.30;99.90;;;;;;4976072;28;20551;-45
2023/07/03 03:08:30;;;;;;;28.55;17.30;;;16.40;99.90;;;;;;4979105;28;20046;-42
2023/07/03 03:10:59;;;;;;;26.92;16.13;;;16.40;99.90;;;;;;4972798;28;20519;-44
2023/07/03 03:13:26;;;;;;;29.00;16.48;;;16.40;99.90;;;;;;4964353;28;20039;-43
2023/07/03 03:15:56;;;;;;;27.42;15.85;;;16.40;99.90;;;;;;4962919;28;20149;-43
2023/07/03 03:18:23;;;;;;;27.13;15.88;;;16.50;99.90;;;;;;4962752;28;20051;-43
2023/07/03 03:20:51;;;;;;;30.65;16.58;;;16.50;99.90;;;;;;4962750;28;20047;-45
2023/07/03 03:23:18;;;;;;;29.90;15.45;;;16.60;99.90;;;;;;4970871;28;20074;-46
2023/07/03 03:25:46;;;;;;;27.67;15.40;;;16.50;99.90;;;;;;4969690;28;20512;-45
2023/07/03 03:28:13;;;;;;;24.83;15.73;;;16.60;99.90;;;;;;4955863;28;20426;-45
2023/07/03 03:30:41;;;;;;;26.67;15.90;;;16.60;99.90;;;;;;4965647;28;20531;-44
2023/07/03 03:33:08;;;;;;;28.48;15.85;;;16.60;99.90;;;;;;4967229;28;20133;-43
2023/07/03 03:35:36;;;;;;;26.67;15.65;;;16.60;99.90;;;;;;4971546;28;20097;-45
2023/07/03 03:38:05;;;;;;;28.85;16.77;;;16.60;99.90;;;;;;4971340;28;20059;-44
2023/07/03 03:40:32;;;;;;;26.73;16.10;;;16.60;99.90;;;;;;4969014;28;20038;-45
2023/07/03 03:43:00;;;;;;;27.38;15.77;;;16.60;99.90;;;;;;4958014;28;20074;-44
2023/07/03 03:45:27;;;;;;;30.77;16.63;;;16.70;99.90;;;;;;4969307;28;20070;-40
2023/07/03 03:47:54;;;;;;;28.90;16.10;;;16.70;99.90;;;;;;4969490;28;20098;-45
2023/07/03 03:50:22;;;;;;;32.08;16.83;;;16.70;99.90;;;;;;4967720;28;20050;-40
2023/07/03 03:52:49;;;;;;;29.38;15.65;;;16.80;99.90;;;;;;4970147;28;20049;-43
2023/07/03 03:55:17;;;;;;;30.15;15.73;;;16.70;99.90;;;;;;4971208;28;20088;-44
2023/07/03 03:57:44;;;;;;;26.02;15.40;;;16.70;99.90;;;;;;4966941;28;20047;-45
2023/07/03 04:00:20;;;;;;;26.90;15.57;;;16.70;99.90;;;;;;4966373;28;20142;-44
2023/07/03 04:02:48;;;;;;;25.00;14.77;;;16.80;99.90;;;;;;4968058;28;20471;-44
2023/07/03 04:05:16;;;;;;;27.33;15.55;;;16.90;99.90;;;;;;4971961;28;20527;-45
2023/07/03 04:07:43;;;;;;;29.95;15.38;;;16.90;99.90;;;;;;4969537;28;20055;-44
2023/07/03 04:10:11;;;;;;;24.85;15.13;;;16.90;99.90;;;;;;4964681;28;20050;-43
2023/07/03 04:12:38;;;;;;;27.60;15.35;;;17.00;99.90;;;;;;4969938;28;20090;-45
2023/07/03 04:15:06;;;;;;;29.48;15.60;;;17.00;99.90;;;;;;4968608;28;20047;-45
2023/07/03 04:17:34;;;;;;;27.27;15.75;;;16.90;99.90;;;;;;4965802;28;20089;-45
2023/07/03 04:20:06;;;;;;;28.15;15.52;;;17.00;99.90;;;;;;4971785;28;20053;-45
2023/07/03 04:22:34;;;;;;;23.08;14.95;;;17.00;99.90;;;;;;4969348;28;20134;-44
2023/07/03 04:25:02;;;;;;;23.65;14.75;;;17.10;99.90;;;;;;4970384;28;20715;-44
2023/07/03 04:27:29;;;;;;;25.08;15.48;;;17.10;99.90;;;;;;4960127;28;20051;-43
2023/07/03 04:29:56;;;;;;;25.58;15.20;;;17.10;99.90;;;;;;4960244;28;20047;-43
2023/07/03 04:32:24;;;;;;;27.88;16.65;;;17.10;99.90;;;;;;4971929;28;20119;-42
2023/07/03 04:34:51;;;;;;;25.23;14.88;;;17.20;99.90;;;;;;4969720;28;20043;-45
2023/07/03 04:37:18;;;;;;;24.15;14.77;;;17.20;99.90;;;;;;4963707;28;20074;-44
2023/07/03 04:39:46;;;;;;;26.45;15.68;;;17.20;99.90;;;;;;4964037;28;20062;-47
2023/07/03 04:42:13;;;;;;;24.67;14.57;;;17.20;99.90;;;;;;4968096;28;20050;-43
2023/07/03 04:44:41;;;;;;;25.67;14.95;;;17.30;99.90;;;;;;4970744;28;20039;-45
2023/07/03 04:47:09;;;;;;;28.85;15.43;;;17.30;99.90;;;;;;4959360;28;20484;-44
2023/07/03 04:49:37;;;;;;;25.15;14.77;;;17.30;99.90;;;;;;4955502;28;20058;-44
2023/07/03 04:52:05;;;;;;;27.90;14.88;;;17.30;99.90;;;;;;4972432;28;20055;-46
2023/07/03 04:54:35;;;;;;;26.65;14.93;;;17.30;99.90;;;;;;4961331;28;20435;-45
2023/07/03 04:57:02;;;;;;;31.23;15.25;;;17.30;99.90;;;;;;4968443;28;20031;-44
2023/07/03 04:59:29;;;;;;;25.63;15.13;;;17.40;99.90;;;;;;4962288;28;20130;-43
2023/07/03 05:01:57;;;;;;;26.33;15.85;;;17.50;99.90;;;;;;4974581;28;20074;-45
2023/07/03 05:04:24;;;;;;;23.48;14.35;;;17.60;99.90;;;;;;4964073;28;20050;-45
2023/07/03 05:06:51;;;;;;;25.70;14.35;;;17.60;99.90;;;;;;4963137;28;20065;-44
2023/07/03 05:09:19;;;;;;;28.10;15.45;;;17.60;99.90;;;;;;4968308;28;20569;-44
2023/07/03 05:11:48;;;;;;;24.25;14.23;;;17.60;99.90;;;;;;4962897;28;20094;-45
2023/07/03 05:14:16;;;;;;;40.55;15.20;;;17.70;99.90;;;;;;4967634;28;20047;-42
2023/07/03 05:16:43;;;;;;;26.20;14.13;;;17.80;99.90;;;;;;4967137;28;20050;-44
2023/07/03 05:19:13;;;;;;;26.60;14.38;;;17.80;99.90;;;;;;4966721;28;20047;-44
2023/07/03 05:21:40;;;;;;;29.15;14.25;;;17.90;99.90;;;;;;4974844;28;20051;-43
2023/07/03 05:24:07;;;;;;;23.13;14.30;;;17.90;99.90;;;;;;4970806;28;20531;-44
2023/07/03 05:26:35;;;;;;;26.70;14.43;;;18.00;99.90;;;;;;4967667;28;20059;-44
2023/07/03 05:29:02;;;;;;;26.90;14.93;;;18.10;99.90;;;;;;4968948;28;20051;-45
2023/07/03 05:31:29;;;;;;;29.73;15.55;;;18.10;99.90;;;;;;4963280;28;20055;-43
2023/07/03 05:33:58;;;;;;;24.02;13.57;;;18.10;99.90;;;;;;4962796;28;20063;-43
2023/07/03 05:36:25;;;;;;;25.35;14.80;;;18.10;99.90;;;;;;4959628;28;20178;-40
2023/07/03 05:38:53;;;;;;;28.83;15.20;;;18.00;99.90;;;;;;4959323;28;20121;-45
2023/07/03 05:41:20;;;;;;;25.70;14.13;;;18.10;99.90;;;;;;4962513;28;20051;-43
2023/07/03 05:43:47;;;;;;;25.08;14.73;;;18.30;99.90;;;;;;4969395;28;20600;-45
2023/07/03 05:46:15;;;;;;;23.10;13.55;;;18.30;99.90;;;;;;4969445;28;20066;-46
2023/07/03 05:48:44;;;;;;;22.52;13.95;;;18.50;99.90;;;;;;4971182;28;20083;-44
2023/07/03 05:51:12;;;;;;;22.92;14.25;;;18.60;99.90;;;;;;4957212;28;20047;-45
2023/07/03 05:53:39;;;;;;;24.15;14.70;;;18.80;99.90;;;;;;4964265;28;20216;-45
2023/07/03 05:56:06;;;;;;;29.98;15.15;;;18.80;99.90;;;;;;4965515;28;20050;-43
2023/07/03 05:58:34;;;;;;;20.77;14.18;;;18.90;99.90;;;;;;4964026;28;20097;-45
2023/07/03 06:01:03;;;;;;;24.65;15.00;;;19.00;99.90;;;;;;4963426;28;20159;-45
2023/07/03 06:03:31;;;;;;;23.10;14.85;;;19.10;99.90;;;;;;4960555;28;20579;-51
2023/07/03 06:05:59;;;;;;;28.05;14.98;;;19.10;99.90;;;;;;4960121;28;20043;-49
2023/07/03 06:08:27;;;;;;;27.27;14.65;;;19.10;99.90;;;;;;4961979;28;20516;-46
2023/07/03 06:10:54;;;;;;;25.98;14.65;;;19.30;99.90;;;;;;4961890;28;20047;-50
2023/07/03 06:13:21;;;;;;;28.73;15.38;;;19.20;99.90;;;;;;4960201;28;20070;-48
2023/07/03 06:15:49;;;;;;;25.42;15.27;;;19.40;99.90;;;;;;4966829;28;20051;-45
2023/07/03 06:18:16;;;;;;;25.67;15.05;;;19.50;99.90;;;;;;4961740;28;20054;-47
2023/07/03 06:20:44;;;;;;;30.63;15.07;;;19.70;99.90;;;;;;4961653;28;20074;-49
2023/07/03 06:23:11;;;;;;;26.13;14.60;;;19.70;99.90;;;;;;4961330;28;20062;-47
2023/07/03 06:25:40;;;;;;;24.33;14.35;;;19.80;99.90;;;;;;4963632;28;20047;-49
2023/07/03 06:28:07;;;;;;;22.05;13.93;;;19.60;99.90;;;;;;4960782;28;20122;-47
2023/07/03 06:30:34;;;;;;;25.45;15.13;;;19.80;99.90;;;;;;4959068;28;20472;-50
2023/07/03 06:33:02;;;;;;;33.17;15.32;;;20.00;99.90;;;;;;4962971;28;20606;-47
2023/07/03 06:35:30;;;;;;;24.15;15.75;;;19.90;99.90;;;;;;4960500;28;20034;-47
2023/07/03 06:38:00;;;;;;;19.67;14.27;;;19.90;99.90;;;;;;4968494;28;20046;-47
2023/07/03 06:40:28;;;;;;;22.90;14.77;;;20.10;99.90;;;;;;4961127;28;20510;-48
2023/07/03 06:42:55;;;;;;;26.38;14.52;;;20.20;99.90;;;;;;4971354;28;20082;-46
2023/07/03 06:45:26;;;;;;;25.27;14.10;;;20.20;99.90;;;;;;4965214;28;20071;-48
2023/07/03 06:47:54;;;;;;;23.27;14.55;;;20.20;99.90;;;;;;4970897;28;20105;-50
2023/07/03 06:50:21;;;;;;;24.40;14.18;;;20.30;99.90;;;;;;4960207;28;20142;-48
2023/07/03 06:52:48;;;;;;;24.98;15.27;;;20.40;99.90;;;;;;4963964;28;20121;-46
2023/07/03 06:55:16;;;;;;;22.15;14.57;;;20.20;99.90;;;;;;5001020;23;20548;-49
2023/07/03 06:57:43;;;;;;;25.83;14.65;;;20.10;99.90;;;;;;5008638;28;20046;-46
2023/07/03 07:00:11;;;;;;;25.02;14.52;;;20.30;99.90;;;;;;5009494;28;20073;-44
2023/07/03 07:02:39;;;;;;;22.45;14.70;;;20.40;99.90;;;;;;5011193;28;20041;-44
2023/07/03 07:05:07;;;;;;;24.48;15.00;;;20.50;99.90;;;;;;5000771;28;20057;-44
2023/07/03 07:07:35;;;;;;;23.98;14.05;;;20.50;99.90;;;;;;4980700;28;20050;-46
2023/07/03 07:10:03;;;;;;;23.27;14.18;;;20.50;99.90;;;;;;4982488;28;20077;-46
2023/07/03 07:12:30;;;;;;;23.67;14.75;;;20.60;99.90;;;;;;4985414;28;20084;-44
2023/07/03 07:14:57;;;;;;;22.60;14.35;;;20.50;99.90;;;;;;4985694;28;20507;-44
2023/07/03 07:17:25;;;;;;;23.75;14.85;;;20.50;99.90;;;;;;4996220;28;20057;-46
2023/07/03 07:20:12;;;;;;;21.75;14.30;;;20.60;99.90;;;;;;4988883;28;20066;-43
2023/07/03 07:22:39;;;;;;;25.98;15.43;;;20.70;99.90;;;;;;4988925;28;20133;-45
2023/07/03 07:25:07;;;;;;;25.20;14.85;;;21.00;99.90;;;;;;4987743;28;20096;-41
2023/07/03 07:27:34;;;;;;;24.00;14.23;;;21.20;99.90;;;;;;4988651;28;20500;-47
2023/07/03 07:30:02;;;;;;;23.08;13.98;;;21.20;99.90;;;;;;4988788;28;20057;-46
2023/07/03 07:32:30;;;;;;;23.15;14.20;;;21.10;99.90;;;;;;4988735;28;20070;-47
2023/07/03 07:34:58;;;;;;;25.40;14.02;;;21.20;99.90;;;;;;4988848;28;20112;-42
2023/07/03 07:37:25;;;;;;;22.75;14.65;;;21.10;99.90;;;;;;4987489;28;20069;-45
2023/07/03 07:39:52;;;;;;;23.95;14.73;;;21.00;99.90;;;;;;4984150;28;20561;-42
2023/07/03 07:42:19;;;;;;;24.73;14.07;;;21.00;99.90;;;;;;4987336;28;20066;-48
2023/07/03 07:44:50;;;;;;;22.05;14.05;;;20.90;99.90;;;;;;4991702;28;20053;-47
2023/07/03 07:47:17;;;;;;;22.10;14.50;;;21.10;99.90;;;;;;4985524;28;20145;-43
2023/07/03 07:49:44;;;;;;;24.35;14.60;;;21.20;99.90;;;;;;4988871;28;20373;-46
2023/07/03 07:52:12;;;;;;;21.40;14.45;;;21.00;99.90;;;;;;4989652;28;20507;-42
2023/07/03 07:54:39;;;;;;;22.95;15.18;;;21.10;99.90;;;;;;4990386;28;20074;-47
2023/07/03 07:57:07;;;;;;;23.98;14.98;;;20.90;99.90;;;;;;4991857;28;20050;-45
2023/07/03 07:59:35;;;;;;;25.13;13.70;;;21.20;99.90;;;;;;4989791;28;20586;-46
2023/07/03 08:02:03;;;;;;;23.35;14.13;;;21.20;99.90;;;;;;4988905;28;20500;-45
2023/07/03 08:04:32;;;;;;;23.50;14.63;;;21.30;99.90;;;;;;4987388;28;20062;-43
2023/07/03 08:07:00;;;;;;;20.95;13.15;;;21.60;99.90;;;;;;4981933;28;20511;-48
2023/07/03 08:09:27;;;;;;;20.38;13.18;;;21.50;99.90;;;;;;4982166;28;20073;-47
2023/07/03 08:11:54;;;;;;;20.05;13.10;;;21.80;99.90;;;;;;4989448;28;20042;-47
2023/07/03 08:14:22;;;;;;;23.30;14.30;;;21.80;99.90;;;;;;4988986;28;20513;-47
2023/07/03 08:16:49;;;;;;;22.00;13.85;;;21.70;99.90;;;;;;4998694;28;20058;-44
2023/07/03 08:19:17;;;;;;;21.30;13.70;;;21.80;99.90;;;;;;4988855;28;20046;-48
2023/07/03 08:21:44;;;;;;;21.77;13.13;;;22.00;99.90;;;;;;4990101;28;20126;-46
2023/07/03 08:24:11;;;;;;;26.90;12.50;;;22.00;99.90;;;;;;4989741;28;20146;-41
2023/07/03 08:26:41;;;;;;;20.05;12.13;;;22.00;99.90;;;;;;4984876;28;20046;-46
2023/07/03 08:29:08;;;;;;;20.00;12.70;;;22.30;99.90;;;;;;4992881;28;20058;-43
2023/07/03 08:31:36;;;;;;;23.90;12.93;;;22.70;99.90;;;;;;4990250;28;20066;-48
2023/07/03 08:34:03;;;;;;;18.17;12.20;;;22.50;99.90;;;;;;4992320;28;20050;-39
2023/07/03 08:36:31;;;;;;;19.52;12.25;;;22.40;99.90;;;;;;4992368;28;20100;-43
2023/07/03 08:39:02;;;;;;;22.70;13.15;;;22.10;99.90;;;;;;4985689;28;20077;-47
2023/07/03 08:41:33;;;;;;;22.73;13.15;;;22.10;99.90;;;;;;4987169;28;20058;-44
2023/07/03 08:44:01;;;;;;;23.20;13.13;;;22.10;99.90;;;;;;4991703;28;20054;-40
2023/07/03 08:46:31;;;;;;;24.77;13.55;;;22.20;99.90;;;;;;4988215;28;20050;-39
2023/07/03 08:49:03;;;;;;;22.58;13.32;;;22.30;99.90;;;;;;4992132;28;20042;-45
2023/07/03 08:51:36;;;;;;;24.90;12.68;;;22.70;99.90;;;;;;4993748;28;20070;-47
2023/07/03 08:54:12;;;;;;;24.15;13.30;;;22.80;99.90;;;;;;4999091;28;20112;-46
2023/07/03 08:56:40;;;;;;;20.65;12.70;;;22.30;99.90;;;;;;5008399;28;20062;-44
2023/07/03 08:59:08;;;;;;;22.20;12.38;;;22.40;99.90;;;;;;4991960;28;20516;-46
2023/07/03 09:02:13;;;;;;;19.23;11.13;;;22.60;99.90;;;;;;4985269;28;20045;-45
2023/07/03 09:04:57;;;;;;;25.52;11.85;;;22.60;99.90;;;;;;5007162;28;20249;-43
2023/07/03 09:07:38;;;;;;;22.13;11.77;;;22.40;99.90;;;;;;4990936;28;20054;-41
2023/07/03 09:10:11;;;;;;;22.20;12.17;;;22.10;99.90;;;;;;4991850;28;20042;-42
2023/07/03 09:13:05;;;;;;;20.90;11.88;;;21.90;99.90;;;;;;4997038;28;20122;-44
2023/07/03 09:16:01;;;;;;;21.15;11.70;;;21.90;99.90;;;;;;4996294;28;20046;-46
2023/07/03 09:18:34;;;;;;;19.60;11.93;;;22.10;99.90;;;;;;4986333;28;20062;-44
2023/07/03 09:21:04;;;;;;;21.92;11.38;;;22.50;99.90;;;;;;4987521;28;20050;-45
2023/07/03 09:23:40;;;;;;;20.27;11.73;;;22.80;99.90;;;;;;4997551;28;20051;-45
2023/07/03 09:26:26;;;;;;;22.50;12.15;;;22.50;99.90;;;;;;4997715;28;20488;-45
2023/07/03 09:28:58;;;;;;;16.52;11.35;;;22.60;99.90;;;;;;4978396;28;20129;-49
2023/07/03 09:31:27;;;;;;;23.30;11.70;;;22.60;99.90;;;;;;4989802;28;20097;-42
2023/07/03 09:33:54;;;;;;;16.63;10.93;;;22.70;99.90;;;;;;4979449;28;20176;-43
2023/07/03 09:36:29;;;;;;;20.25;11.60;;;22.50;99.90;;;;;;4982663;28;20043;-44
2023/07/03 09:38:56;;;;;;;20.58;11.40;;;22.30;99.90;;;;;;4993021;28;20065;-41
2023/07/03 09:41:29;;;;;;;18.88;11.75;;;22.40;99.90;;;;;;5010107;28;20053;-43
2023/07/03 09:43:56;;;;;;;19.33;10.52;;;22.50;99.90;;;;;;4993648;28;20066;-42
2023/07/03 09:46:24;;;;;;;26.15;11.13;;;22.80;99.90;;;;;;4983207;28;20049;-46
2023/07/03 09:48:52;;;;;;;20.48;11.65;;;22.60;99.90;;;;;;5001029;28;20109;-42
2023/07/03 09:51:22;;;;;;;20.33;10.77;;;22.50;99.90;;;;;;4992724;28;20042;-44
2023/07/03 09:53:50;;;;;;;20.20;11.52;;;22.20;99.90;;;;;;4990184;28;20050;-44
2023/07/03 09:56:23;;;;;;;18.15;11.60;;;22.00;99.90;;;;;;4993694;28;20073;-47
2023/07/03 09:58:52;;;;;;;19.00;11.88;;;22.10;99.90;;;;;;4995273;28;20096;-42
2023/07/03 10:01:28;;;;;;;18.67;10.80;;;22.20;99.90;;;;;;4994781;28;20058;-44
2023/07/03 10:04:11;;;;;;;21.48;11.80;;;22.30;99.90;;;;;;4992015;28;20133;-48
2023/07/03 10:06:51;;;;;;;22.33;11.25;;;22.50;99.90;;;;;;4990006;28;20065;-48
2023/07/03 10:09:25;;;;;;;16.13;10.63;;;22.70;99.90;;;;;;4988687;28;20054;-43
2023/07/03 10:12:11;;;;;;;23.02;11.15;;;22.70;99.90;;;;;;4989332;28;20046;-46
2023/07/03 10:14:39;;;;;;;18.85;11.00;;;22.70;99.90;;;;;;4993078;28;20295;-43
2023/07/03 10:17:12;;;;;;;16.13;10.77;;;22.50;99.90;;;;;;5000034;28;20046;-42
2023/07/03 10:19:44;;;;;;;17.73;10.93;;;22.60;99.90;;;;;;4998042;28;20046;-46
2023/07/03 10:22:13;;;;;;;21.67;11.57;;;22.70;99.90;;;;;;4991317;28;20116;-46
2023/07/03 10:24:43;;;;;;;17.40;9.98;;;22.50;99.90;;;;;;4988783;28;20054;-45
2023/07/03 10:27:13;;;;;;;16.95;10.32;;;22.40;99.90;;;;;;4990579;28;20592;-45
2023/07/03 10:29:46;;;;;;;17.13;10.07;;;22.60;99.90;;;;;;4988873;28;20427;-42
2023/07/03 10:32:16;;;;;;;17.73;10.45;;;22.80;99.90;;;;;;4990163;28;20160;-44
2023/07/03 10:35:22;;;;;;;17.92;9.65;;;22.70;99.90;;;;;;4989856;28;20068;-43
2023/07/03 10:37:59;;;;;;;18.10;10.15;;;22.60;99.90;;;;;;4963703;28;20327;-41
2023/07/03 10:40:36;;;;;;;20.23;10.75;;;22.50;99.90;;;;;;4989940;28;20104;-44
2023/07/03 10:43:06;;;;;;;17.27;10.00;;;22.60;99.90;;;;;;4991979;28;20485;-46
2023/07/03 10:45:37;;;;;;;16.67;10.13;;;22.50;99.90;;;;;;4991205;28;20057;-46
2023/07/03 10:48:14;;;;;;;14.57;9.35;;;22.70;99.90;;;;;;4992173;28;20603;-42
2023/07/03 10:51:09;;;;;;;16.17;9.57;;;22.80;99.90;;;;;;4989511;28;20051;-46
2023/07/03 10:53:44;;;;;;;17.98;10.25;;;22.60;99.90;;;;;;4989100;28;20047;-47
2023/07/03 10:56:17;;;;;;;17.50;10.05;;;22.80;99.90;;;;;;4994827;28;20057;-43
2023/07/03 10:58:50;;;;;;;15.98;10.13;;;22.90;99.90;;;;;;5000879;28;20183;-45
2023/07/03 11:01:34;;;;;;;18.00;9.90;;;22.80;99.90;;;;;;4985731;28;20046;-47
2023/07/03 11:04:17;;;;;;;18.33;10.35;;;22.60;99.90;;;;;;4987950;28;20500;-41
2023/07/03 11:07:13;;;;;;;17.65;10.32;;;22.70;99.90;;;;;;4990049;28;20047;-42
2023/07/03 11:10:13;;;;;;;21.50;11.32;;;22.60;99.90;;;;;;4991191;28;20053;-45
2023/07/03 11:13:02;;;;;;;15.50;9.15;;;22.80;99.70;;;;;;4976729;28;20538;-44
2023/07/03 11:15:33;;;;;;;14.57;9.13;;;23.40;99.00;;;;;;4988488;28;20050;-48
2023/07/03 11:18:14;;;;;;;17.42;10.13;;;23.60;98.40;;;;;;4989795;28;20120;-43
2023/07/03 11:21:07;;;;;;;16.02;8.70;;;23.60;97.20;;;;;;4989049;28;20043;-42
2023/07/03 11:23:41;;;;;;;16.77;8.88;;;23.10;96.50;;;;;;4987161;28;20106;-42
2023/07/03 11:26:20;;;;;;;11.15;8.13;;;22.90;96.20;;;;;;4989188;28;20055;-52
2023/07/03 11:28:51;;;;;;;;;;;23.50;95.50;;;;;;4987217;28;20047;-44
2023/07/03 11:31:20;;;;;;;17.08;8.52;;;23.90;95.00;;;;;;4984237;28;20386;-44
2023/07/03 11:33:48;;;;;;;16.70;8.90;;;24.10;94.80;;;;;;4992005;28;20517;-43
2023/07/03 11:36:38;;;;;;;10.90;7.80;;;23.70;94.90;;;;;;5001305;28;20116;-43
2023/07/03 11:39:29;;;;;;;12.02;7.80;;;23.80;94.90;;;;;;4982650;28;20055;-47
2023/07/03 11:42:02;;;;;;;11.88;7.95;;;23.80;94.40;;;;;;4983910;28;20060;-45
2023/07/03 11:44:38;;;;;;;14.85;7.88;;;23.30;94.50;;;;;;4988576;28;20129;-43
2023/07/03 11:47:30;;;;;;;12.30;7.28;;;23.30;95.00;;;;;;4985440;28;20047;-44
2023/07/03 11:50:04;;;;;;;12.02;7.35;;;23.30;94.60;;;;;;4978851;28;20050;-45
2023/07/03 11:52:34;;;;;;;14.30;7.85;;;23.30;94.70;;;;;;4983081;28;20069;-46
2023/07/03 11:55:15;;;;;;;11.15;7.30;;;23.50;94.80;;;;;;4982028;28;20187;-44
2023/07/03 11:57:49;;;;;;;13.13;7.38;;;24.00;93.80;;;;;;4983452;28;20080;-42
2023/07/03 12:00:36;;;;;;;10.65;7.38;;;24.40;93.30;;;;;;4985300;28;20054;-46
2023/07/03 12:03:06;;;;;;;8.40;6.65;;;24.90;91.90;;;;;;4994655;28;20142;-46
2023/07/03 12:05:45;;;;;;;15.18;6.97;;;24.70;91.20;;;;;;4997498;28;20078;-47
2023/07/03 12:08:18;;;;;;;10.32;6.22;;;25.00;91.90;;;;;;4986831;28;20133;-42
2023/07/03 12:10:57;;;;;;;8.18;6.22;;;25.10;91.60;;;;;;4985949;28;20038;-46
2023/07/03 12:13:32;;;;;;;8.10;6.90;;;24.70;91.30;;;;;;4992058;28;20097;-49
2023/07/03 12:16:02;;;;;;;7.25;6.40;;;24.50;91.10;;;;;;4983695;28;20109;-46
2023/07/03 12:18:31;;;;;;;11.68;6.43;;;24.60;90.90;;;;;;4977329;28;20146;-48
2023/07/03 12:21:00;;;;;;;10.40;6.75;;;24.90;91.20;;;;;;4986883;28;20081;-44
2023/07/03 12:23:41;;;;;;;7.72;6.93;;;25.30;90.40;;;;;;4988921;28;20109;-48
2023/07/03 12:26:11;;;;;;;7.68;6.35;;;25.60;90.30;;;;;;4984195;28;20424;-47
2023/07/03 12:28:39;;;;;;;10.70;6.78;;;25.70;90.80;;;;;;4991615;28;20105;-46
2023/07/03 12:31:21;;;;;;;9.02;6.60;;;26.30;90.00;;;;;;4983544;28;20497;-45
2023/07/03 12:33:50;;;;;;;7.25;6.47;;;26.00;87.30;;;;;;4977690;28;20038;-46
2023/07/03 12:36:35;;;;;;;8.68;6.68;;;25.50;88.00;;;;;;4977479;28;20130;-40
2023/07/03 12:39:13;;;;;;;10.65;6.88;;;25.70;88.10;;;;;;4987053;28;20039;-44
2023/07/03 12:41:40;;;;;;;7.05;6.35;;;25.60;87.00;;;;;;4988126;28;20077;-42
2023/07/03 12:44:12;;;;;;;10.10;7.95;;;24.70;88.40;;;;;;4988531;28;20427;-45
2023/07/03 12:46:42;;;;;;;;;;;25.30;89.00;;;;;;4982148;28;20577;-44
2023/07/03 12:49:15;;;;;;;13.23;9.13;;;25.90;87.70;;;;;;4989556;28;20053;-40